createdAt,value
2022-10-31T00:00:20.984Z,24.25
2022-10-31T00:01:31.381Z,27.35
2022-10-31T00:02:18.362Z,30.12
2022-10-31T00:03:05.282Z,24.70
2022-10-31T00:03:52.383Z,20.33
2022-10-31T00:04:39.190Z,21.23
2022-10-31T00:05:26.073Z,27.62
2022-10-31T00:06:13.010Z,22.95
2022-10-31T00:06:59.886Z,26.73
2022-10-31T00:07:46.770Z,21.02
2022-10-31T00:08:33.710Z,24.20
2022-10-31T00:09:20.621Z,23.73
2022-10-31T00:10:08.454Z,21.95
2022-10-31T00:10:55.406Z,20.40
2022-10-31T00:11:42.209Z,21.12
2022-10-31T00:12:29.138Z,21.25
2022-10-31T00:13:16.637Z,19.98
2022-10-31T00:14:03.775Z,19.35
2022-10-31T00:14:50.663Z,21.12
2022-10-31T00:15:41.546Z,21.15
2022-10-31T00:16:29.666Z,21.48
2022-10-31T00:17:16.536Z,21.77
2022-10-31T00:18:04.681Z,20.52
2022-10-31T00:18:57.488Z,27.23
2022-10-31T00:19:44.464Z,24.55
2022-10-31T00:20:31.944Z,23.48
2022-10-31T00:21:18.974Z,22.73
2022-10-31T00:22:05.962Z,20.60
2022-10-31T00:22:52.896Z,24.30
2022-10-31T00:23:39.822Z,21.27
2022-10-31T00:24:26.774Z,20.37
2022-10-31T00:25:13.896Z,21.67
2022-10-31T00:26:05.209Z,19.37
2022-10-31T00:26:52.066Z,21.20
2022-10-31T00:27:38.947Z,20.02
2022-10-31T00:28:26.023Z,20.42
2022-10-31T00:29:14.031Z,21.02
2022-10-31T00:30:00.913Z,19.92
2022-10-31T00:30:47.763Z,20.85
2022-10-31T00:31:34.697Z,19.58
2022-10-31T00:32:21.577Z,21.37
2022-10-31T00:33:08.508Z,23.45
2022-10-31T00:33:55.553Z,19.70
2022-10-31T00:34:42.375Z,20.73
2022-10-31T00:35:29.261Z,21.17
2022-10-31T00:36:18.764Z,19.87
2022-10-31T00:37:05.597Z,20.60
2022-10-31T00:37:53.795Z,18.75
2022-10-31T00:38:41.134Z,19.15
2022-10-31T00:39:28.061Z,20.75
2022-10-31T00:40:15.015Z,19.12
2022-10-31T00:41:01.937Z,19.60
2022-10-31T00:41:48.821Z,19.25
2022-10-31T00:42:35.784Z,19.45
2022-10-31T00:43:22.805Z,18.58
2022-10-31T00:44:09.813Z,20.67
2022-10-31T00:44:56.677Z,18.50
2022-10-31T00:45:44.145Z,18.92
2022-10-31T00:46:31.132Z,20.45
2022-10-31T00:47:18.026Z,18.30
2022-10-31T00:48:05.909Z,18.23
2022-10-31T00:48:52.938Z,20.70
2022-10-31T00:49:39.903Z,22.23
2022-10-31T00:50:26.791Z,18.48
2022-10-31T00:51:13.634Z,19.08
2022-10-31T00:52:00.548Z,19.33
2022-10-31T00:52:47.440Z,22.27
2022-10-31T00:53:34.425Z,19.50
2022-10-31T00:54:21.361Z,18.92
2022-10-31T00:55:08.535Z,20.40
2022-10-31T00:55:55.441Z,18.42
2022-10-31T00:56:42.347Z,21.23
2022-10-31T00:57:29.178Z,17.37
2022-10-31T00:58:16.168Z,19.27
2022-10-31T00:59:03.076Z,21.60
2022-10-31T00:59:49.983Z,18.90
2022-10-31T01:00:36.996Z,18.98
2022-10-31T01:01:24.042Z,20.73
2022-10-31T01:02:11.110Z,22.27
2022-10-31T01:02:58.357Z,17.80
2022-10-31T01:03:45.451Z,18.95
2022-10-31T01:04:32.554Z,17.83
2022-10-31T01:05:19.581Z,18.52
2022-10-31T01:06:12.310Z,19.65
2022-10-31T01:06:59.188Z,19.77
2022-10-31T01:07:46.057Z,18.85
2022-10-31T01:08:33.019Z,18.15
2022-10-31T01:09:20.094Z,18.20
2022-10-31T01:10:08.136Z,19.25
2022-10-31T01:11:12.762Z,17.45
2022-10-31T01:11:59.707Z,19.90
2022-10-31T01:12:49.075Z,18.23
2022-10-31T01:13:36.712Z,18.08
2022-10-31T01:14:23.628Z,19.42
2022-10-31T01:15:12.203Z,18.23
2022-10-31T01:16:00.540Z,21.60
2022-10-31T01:16:47.478Z,19.60
2022-10-31T01:17:34.488Z,21.33
2022-10-31T01:18:21.372Z,19.45
2022-10-31T01:19:08.437Z,18.33
2022-10-31T01:19:55.365Z,17.20
2022-10-31T01:20:42.254Z,22.27
2022-10-31T01:21:30.253Z,19.02
2022-10-31T01:22:17.134Z,18.65
2022-10-31T01:23:04.037Z,19.83
2022-10-31T01:23:52.257Z,19.50
2022-10-31T01:24:39.179Z,18.33
2022-10-31T01:25:26.129Z,18.55
2022-10-31T01:26:24.683Z,20.42
2022-10-31T01:27:11.611Z,19.70
2022-10-31T01:27:58.850Z,18.35
2022-10-31T01:28:48.565Z,18.48
2022-10-31T01:29:35.529Z,17.58
2022-10-31T01:30:22.431Z,21.95
2022-10-31T01:31:10.328Z,18.77
2022-10-31T01:31:57.260Z,19.10
2022-10-31T01:32:44.138Z,17.52
2022-10-31T01:33:31.157Z,17.67
2022-10-31T01:34:18.878Z,17.90
2022-10-31T01:35:05.950Z,17.83
2022-10-31T01:35:52.893Z,16.98
2022-10-31T01:36:39.800Z,18.45
2022-10-31T01:37:26.746Z,17.80
2022-10-31T01:38:13.662Z,17.37
2022-10-31T01:39:05.449Z,17.95
2022-10-31T01:39:52.416Z,20.98
2022-10-31T01:40:39.295Z,17.77
2022-10-31T01:41:29.229Z,17.00
2022-10-31T01:42:21.682Z,17.17
2022-10-31T01:43:14.185Z,16.37
2022-10-31T01:44:03.648Z,16.70
2022-10-31T01:44:55.121Z,17.67
2022-10-31T01:45:43.333Z,16.75
2022-10-31T01:46:43.188Z,17.90
2022-10-31T01:47:43.959Z,17.60
2022-10-31T01:49:19.282Z,18.65
2022-10-31T01:50:12.501Z,16.27
2022-10-31T01:50:59.358Z,17.60
2022-10-31T01:52:11.955Z,15.70
2022-10-31T01:52:59.409Z,15.77
2022-10-31T01:53:47.375Z,17.12
2022-10-31T01:54:37.455Z,16.92
2022-10-31T01:55:30.653Z,16.35
2022-10-31T01:56:18.166Z,16.15
2022-10-31T01:57:07.117Z,17.00
2022-10-31T01:57:56.711Z,17.35
2022-10-31T01:58:43.860Z,17.05
2022-10-31T01:59:32.398Z,17.10
2022-10-31T02:00:20.879Z,19.42
2022-10-31T02:01:08.324Z,17.52
2022-10-31T02:01:55.952Z,17.40
2022-10-31T02:02:43.682Z,18.35
2022-10-31T02:03:32.388Z,17.58
2022-10-31T02:04:20.385Z,17.42
2022-10-31T02:05:12.371Z,18.10
2022-10-31T02:05:59.650Z,17.52
2022-10-31T02:06:55.066Z,16.73
2022-10-31T02:07:54.849Z,16.45
2022-10-31T02:08:41.949Z,15.97
2022-10-31T02:09:30.736Z,17.30
2022-10-31T02:10:18.120Z,17.00
2022-10-31T02:11:05.448Z,16.83
2022-10-31T02:11:57.730Z,17.08
2022-10-31T02:12:45.659Z,17.45
2022-10-31T02:13:32.648Z,17.92
2022-10-31T02:14:20.784Z,18.95
2022-10-31T02:15:09.876Z,17.95
2022-10-31T02:16:00.126Z,22.27
2022-10-31T02:16:46.960Z,18.60
2022-10-31T02:17:34.555Z,19.08
2022-10-31T02:18:22.009Z,18.00
2022-10-31T02:19:09.665Z,17.50
2022-10-31T02:20:06.130Z,17.23
2022-10-31T02:21:14.184Z,19.77
2022-10-31T02:22:14.502Z,19.90
2022-10-31T02:23:29.396Z,18.52
2022-10-31T02:24:47.236Z,16.37
2022-10-31T02:26:05.365Z,17.70
2022-10-31T02:27:11.536Z,17.45
2022-10-31T02:28:07.538Z,18.95
2022-10-31T02:29:06.530Z,17.85
2022-10-31T02:30:13.673Z,16.92
2022-10-31T02:31:14.114Z,17.52
2022-10-31T02:32:07.190Z,18.60
2022-10-31T02:33:12.626Z,19.67
2022-10-31T02:34:04.427Z,16.90
2022-10-31T02:35:00.168Z,17.70
2022-10-31T02:36:12.065Z,19.05
2022-10-31T02:37:19.893Z,17.27
2022-10-31T02:38:38.052Z,17.20
2022-10-31T02:39:32.618Z,16.45
2022-10-31T02:40:31.548Z,15.65
2022-10-31T02:41:29.009Z,16.83
2022-10-31T02:42:35.438Z,17.73
2022-10-31T02:43:28.959Z,16.48
2022-10-31T02:44:32.200Z,19.25
2022-10-31T02:45:32.057Z,16.55
2022-10-31T02:46:22.049Z,15.43
2022-10-31T02:47:08.805Z,16.33
2022-10-31T02:47:58.018Z,17.70
2022-10-31T02:48:46.148Z,17.02
2022-10-31T02:49:49.797Z,16.92
2022-10-31T02:50:40.770Z,19.10
2022-10-31T02:51:28.079Z,16.90
2022-10-31T02:52:35.572Z,28.98
2022-10-31T02:53:22.527Z,22.85
2022-10-31T02:54:25.802Z,16.80
2022-10-31T02:55:34.477Z,15.98
2022-10-31T02:56:21.528Z,15.52
2022-10-31T02:57:08.772Z,18.42
2022-10-31T02:58:08.593Z,17.62
2022-10-31T02:59:01.277Z,24.50
2022-10-31T02:59:52.176Z,21.80
2022-10-31T03:00:53.365Z,18.85
2022-10-31T03:02:06.958Z,36.58
2022-10-31T03:02:57.130Z,24.77
2022-10-31T03:03:56.261Z,21.00
2022-10-31T03:04:43.197Z,58.25
2022-10-31T03:05:51.179Z,21.15
2022-10-31T03:06:55.901Z,71.55
2022-10-31T03:07:49.717Z,32.08
2022-10-31T03:08:59.066Z,26.77
2022-10-31T03:10:06.503Z,28.60
2022-10-31T03:11:01.522Z,28.20
2022-10-31T03:11:58.026Z,22.25
2022-10-31T03:12:55.532Z,24.67
2022-10-31T03:13:43.027Z,20.62
2022-10-31T03:15:08.574Z,33.92
2022-10-31T03:16:06.490Z,18.55
2022-10-31T03:16:54.542Z,16.12
2022-10-31T03:18:11.191Z,33.10
2022-10-31T03:19:07.613Z,41.72
2022-10-31T03:19:57.616Z,39.13
2022-10-31T03:20:51.088Z,60.03
2022-10-31T03:21:44.218Z,49.10
2022-10-31T03:22:32.775Z,29.95
2022-10-31T03:23:20.910Z,50.97
2022-10-31T03:24:08.521Z,53.67
2022-10-31T03:24:56.415Z,25.27
2022-10-31T03:25:44.278Z,31.80
2022-10-31T03:26:31.591Z,31.37
2022-10-31T03:27:25.402Z,31.30
2022-10-31T03:28:13.829Z,34.00
2022-10-31T03:29:08.015Z,46.70
2022-10-31T03:29:57.943Z,52.45
2022-10-31T03:30:46.283Z,24.63
2022-10-31T03:31:46.340Z,28.90
2022-10-31T03:32:38.302Z,42.40
2022-10-31T03:33:30.218Z,28.23
2022-10-31T03:34:18.702Z,37.92
2022-10-31T03:35:07.523Z,25.98
2022-10-31T03:35:56.896Z,19.33
2022-10-31T03:36:45.568Z,24.12
2022-10-31T03:37:34.127Z,19.23
2022-10-31T03:38:21.208Z,20.85
2022-10-31T03:39:11.077Z,22.60
2022-10-31T03:40:00.085Z,21.37
2022-10-31T03:40:48.269Z,22.90
2022-10-31T03:41:39.456Z,23.83
2022-10-31T03:42:27.486Z,28.80
2022-10-31T03:43:18.863Z,28.52
2022-10-31T03:44:10.405Z,16.30
2022-10-31T03:44:58.122Z,16.23
2022-10-31T03:45:47.552Z,23.30
2022-10-31T03:46:34.916Z,30.45
2022-10-31T03:47:21.764Z,25.60
2022-10-31T03:48:08.642Z,19.60
2022-10-31T03:48:55.852Z,30.80
2022-10-31T03:49:43.205Z,23.17
2022-10-31T03:50:40.898Z,26.67
2022-10-31T03:51:43.739Z,23.15
2022-10-31T03:52:37.366Z,22.90
2022-10-31T03:53:28.350Z,15.38
2022-10-31T03:54:25.178Z,27.35
2022-10-31T03:55:20.073Z,22.55
2022-10-31T03:56:36.843Z,18.08
2022-10-31T03:57:31.172Z,19.02
2022-10-31T03:58:27.591Z,16.92
2022-10-31T03:59:36.865Z,22.15
2022-10-31T04:00:23.738Z,18.83
2022-10-31T04:01:13.141Z,22.05
2022-10-31T04:02:05.166Z,17.95
2022-10-31T04:03:30.895Z,15.75
2022-10-31T04:04:18.115Z,25.95
2022-10-31T04:05:05.880Z,22.50
2022-10-31T04:05:55.650Z,19.17
2022-10-31T04:06:44.356Z,23.35
2022-10-31T04:07:35.862Z,15.50
2022-10-31T04:08:26.333Z,22.83
2022-10-31T04:10:01.915Z,24.08
2022-10-31T04:10:50.084Z,32.50
2022-10-31T04:11:45.346Z,19.48
2022-10-31T04:12:33.042Z,22.20
2022-10-31T04:13:24.533Z,20.17
2022-10-31T04:14:13.065Z,15.75
2022-10-31T04:15:00.396Z,36.25
2022-10-31T04:15:47.555Z,18.00
2022-10-31T04:16:34.516Z,15.60
2022-10-31T04:17:24.060Z,20.20
2022-10-31T04:18:10.951Z,44.92
2022-10-31T04:18:57.810Z,26.42
2022-10-31T04:19:44.886Z,26.62
2022-10-31T04:20:37.029Z,18.52
2022-10-31T04:21:31.076Z,18.92
2022-10-31T04:22:18.012Z,22.73
2022-10-31T04:23:05.472Z,19.17
2022-10-31T04:23:52.377Z,22.05
2022-10-31T04:24:41.388Z,14.68
2022-10-31T04:25:28.500Z,17.58
2022-10-31T04:26:15.555Z,17.52
2022-10-31T04:27:02.400Z,15.00
2022-10-31T04:27:49.305Z,14.82
2022-10-31T04:28:36.154Z,14.27
2022-10-31T04:29:23.132Z,14.50
2022-10-31T04:30:10.547Z,16.35
2022-10-31T04:30:57.516Z,17.83
2022-10-31T04:31:44.423Z,13.90
2022-10-31T04:32:31.324Z,14.63
2022-10-31T04:33:18.367Z,17.80
2022-10-31T04:34:05.363Z,18.58
2022-10-31T04:34:52.199Z,14.35
2022-10-31T04:35:39.022Z,17.92
2022-10-31T04:36:25.999Z,13.45
2022-10-31T04:37:12.910Z,16.87
2022-10-31T04:37:59.794Z,14.02
2022-10-31T04:38:46.731Z,13.70
2022-10-31T04:39:33.800Z,18.17
2022-10-31T04:40:20.644Z,15.15
2022-10-31T04:41:07.614Z,18.90
2022-10-31T04:41:54.633Z,16.83
2022-10-31T04:42:41.569Z,14.07
2022-10-31T04:43:28.452Z,15.48
2022-10-31T04:44:15.237Z,13.40
2022-10-31T04:45:02.075Z,15.70
2022-10-31T04:45:49.001Z,13.35
2022-10-31T04:46:35.837Z,13.95
2022-10-31T04:47:22.743Z,16.20
2022-10-31T04:48:09.628Z,17.23
2022-10-31T04:48:56.485Z,14.85
2022-10-31T04:49:43.310Z,18.25
2022-10-31T04:50:30.393Z,14.20
2022-10-31T04:51:17.295Z,14.10
2022-10-31T04:52:04.414Z,13.52
2022-10-31T04:52:51.297Z,17.98
2022-10-31T04:53:38.178Z,13.50
2022-10-31T04:54:25.083Z,17.20
2022-10-31T04:55:13.286Z,14.13
2022-10-31T04:56:01.988Z,18.67
2022-10-31T04:56:48.958Z,15.52
2022-10-31T04:57:46.608Z,13.75
2022-10-31T04:58:33.625Z,14.20
2022-10-31T04:59:21.092Z,13.85
2022-10-31T05:00:08.565Z,13.93
2022-10-31T05:00:56.901Z,14.55
2022-10-31T05:01:43.917Z,19.33
2022-10-31T05:02:30.898Z,14.07
2022-10-31T05:03:17.794Z,14.90
2022-10-31T05:04:04.824Z,15.18
2022-10-31T05:04:51.730Z,14.10
2022-10-31T05:05:38.769Z,18.67
2022-10-31T05:06:25.591Z,14.15
2022-10-31T05:07:12.492Z,14.18
2022-10-31T05:07:59.576Z,13.85
2022-10-31T05:08:46.517Z,14.63
2022-10-31T05:09:33.537Z,14.52
2022-10-31T05:10:24.058Z,13.77
2022-10-31T05:11:57.656Z,13.57
2022-10-31T05:12:49.237Z,14.87
2022-10-31T05:13:36.094Z,13.27
2022-10-31T05:14:23.040Z,13.43
2022-10-31T05:15:10.250Z,13.57
2022-10-31T05:15:57.170Z,14.20
2022-10-31T05:16:44.018Z,14.57
2022-10-31T05:17:32.589Z,22.15
2022-10-31T05:18:19.540Z,16.37
2022-10-31T05:19:06.732Z,13.70
2022-10-31T05:19:53.711Z,14.27
2022-10-31T05:20:40.571Z,14.35
2022-10-31T05:21:27.496Z,14.70
2022-10-31T05:22:14.556Z,15.27
2022-10-31T05:23:01.629Z,15.65
2022-10-31T05:23:48.756Z,14.45
2022-10-31T05:24:37.410Z,14.95
2022-10-31T05:25:27.497Z,13.90
2022-10-31T05:26:14.412Z,14.68
2022-10-31T05:27:01.398Z,15.35
2022-10-31T05:27:49.525Z,17.80
2022-10-31T05:28:36.407Z,15.25
2022-10-31T05:29:23.303Z,16.05
2022-10-31T05:30:11.955Z,15.10
2022-10-31T05:30:58.799Z,14.60
2022-10-31T05:31:45.701Z,18.80
2022-10-31T05:32:40.800Z,15.40
2022-10-31T05:33:27.734Z,14.50
2022-10-31T05:34:14.852Z,14.63
2022-10-31T05:35:01.816Z,14.07
2022-10-31T05:35:49.318Z,20.33
2022-10-31T05:36:36.278Z,14.93
2022-10-31T05:37:23.280Z,15.07
2022-10-31T05:38:10.359Z,15.38
2022-10-31T05:38:57.283Z,17.60
2022-10-31T05:39:44.212Z,14.77
2022-10-31T05:40:31.107Z,15.13
2022-10-31T05:41:18.077Z,13.98
2022-10-31T05:42:05.097Z,14.73
2022-10-31T05:42:53.905Z,13.93
2022-10-31T05:43:40.846Z,13.93
2022-10-31T05:44:27.819Z,15.38
2022-10-31T05:45:17.322Z,13.40
2022-10-31T05:46:04.273Z,13.40
2022-10-31T05:46:51.090Z,14.52
2022-10-31T05:47:38.082Z,13.88
2022-10-31T05:48:25.089Z,13.57
2022-10-31T05:49:12.128Z,14.45
2022-10-31T05:49:58.982Z,14.80
2022-10-31T05:50:45.922Z,18.35
2022-10-31T05:51:32.808Z,24.45
2022-10-31T05:52:19.856Z,20.60
2022-10-31T05:53:06.961Z,16.85
2022-10-31T05:53:53.845Z,14.07
2022-10-31T05:54:40.779Z,17.08
2022-10-31T05:55:28.248Z,13.88
2022-10-31T05:56:15.131Z,14.02
2022-10-31T05:57:02.148Z,13.40
2022-10-31T05:57:49.015Z,14.27
2022-10-31T05:58:35.831Z,15.73
2022-10-31T05:59:22.751Z,14.35
2022-10-31T06:00:10.422Z,14.35
2022-10-31T06:00:57.238Z,14.50
2022-10-31T06:01:44.260Z,18.77
2022-10-31T06:02:35.650Z,14.63
2022-10-31T06:03:22.703Z,19.23
2022-10-31T06:04:09.806Z,14.13
2022-10-31T06:04:56.742Z,14.63
2022-10-31T06:05:43.762Z,13.62
2022-10-31T06:06:30.637Z,18.37
2022-10-31T06:07:17.783Z,14.25
2022-10-31T06:08:05.077Z,14.15
2022-10-31T06:08:52.113Z,14.93
2022-10-31T06:09:39.025Z,13.50
2022-10-31T06:10:26.151Z,15.52
2022-10-31T06:11:13.181Z,17.65
2022-10-31T06:12:00.057Z,14.60
2022-10-31T06:12:47.069Z,14.45
2022-10-31T06:13:33.894Z,13.43
2022-10-31T06:14:20.827Z,12.57
2022-10-31T06:15:09.478Z,14.18
2022-10-31T06:15:56.536Z,12.40
2022-10-31T06:16:43.491Z,11.73
2022-10-31T06:17:30.334Z,13.75
2022-10-31T06:18:17.310Z,12.77
2022-10-31T06:19:04.316Z,12.77
2022-10-31T06:19:51.352Z,14.27
2022-10-31T06:20:38.211Z,12.88
2022-10-31T06:21:25.534Z,13.32
2022-10-31T06:22:12.835Z,13.30
2022-10-31T06:23:00.093Z,13.27
2022-10-31T06:23:47.194Z,13.75
2022-10-31T06:24:34.280Z,13.13
2022-10-31T06:25:21.327Z,13.20
2022-10-31T06:26:08.277Z,15.32
2022-10-31T06:26:55.238Z,14.48
2022-10-31T06:27:42.206Z,14.48
2022-10-31T06:28:29.178Z,12.93
2022-10-31T06:29:16.133Z,13.62
2022-10-31T06:30:03.100Z,14.52
2022-10-31T06:30:50.009Z,13.93
2022-10-31T06:31:36.956Z,13.55
2022-10-31T06:32:24.372Z,13.65
2022-10-31T06:33:11.393Z,13.13
2022-10-31T06:33:58.307Z,15.73
2022-10-31T06:34:45.365Z,12.98
2022-10-31T06:35:33.016Z,12.77
2022-10-31T06:36:19.915Z,14.13
2022-10-31T06:37:11.258Z,13.20
2022-10-31T06:37:58.377Z,13.60
2022-10-31T06:38:45.601Z,13.35
2022-10-31T06:39:32.513Z,13.20
2022-10-31T06:40:19.427Z,13.18
2022-10-31T06:41:07.230Z,14.25
2022-10-31T06:41:54.199Z,13.15
2022-10-31T06:42:41.136Z,13.15
2022-10-31T06:43:28.313Z,12.55
2022-10-31T06:44:15.452Z,12.55
2022-10-31T06:45:02.415Z,12.88
2022-10-31T06:45:49.316Z,14.27
2022-10-31T06:46:36.182Z,12.63
2022-10-31T06:47:23.086Z,12.15
2022-10-31T06:48:18.422Z,12.40
2022-10-31T06:49:05.661Z,11.88
2022-10-31T06:49:52.580Z,12.00
2022-10-31T06:50:39.462Z,12.48
2022-10-31T06:51:26.351Z,12.37
2022-10-31T06:52:13.277Z,12.50
2022-10-31T06:53:00.486Z,11.55
2022-10-31T06:53:47.554Z,12.77
2022-10-31T06:54:34.534Z,12.37
2022-10-31T06:55:23.822Z,12.95
2022-10-31T06:56:10.715Z,12.18
2022-10-31T06:56:57.557Z,13.23
2022-10-31T06:57:51.050Z,12.43
2022-10-31T06:58:37.868Z,13.50
2022-10-31T06:59:25.535Z,14.63
2022-10-31T07:00:12.888Z,13.23
2022-10-31T07:01:02.958Z,15.13
2022-10-31T07:01:50.076Z,14.48
2022-10-31T07:02:37.084Z,13.95
2022-10-31T07:03:24.036Z,14.98
2022-10-31T07:04:11.795Z,13.25
2022-10-31T07:04:58.717Z,14.07
2022-10-31T07:05:45.879Z,14.45
2022-10-31T07:06:32.911Z,14.15
2022-10-31T07:07:22.386Z,13.85
2022-10-31T07:08:11.949Z,13.93
2022-10-31T07:08:58.829Z,12.57
2022-10-31T07:09:45.922Z,11.40
2022-10-31T07:10:37.270Z,11.25
2022-10-31T07:11:27.245Z,12.73
2022-10-31T07:12:14.267Z,11.88
2022-10-31T07:13:03.576Z,11.60
2022-10-31T07:13:50.541Z,12.35
2022-10-31T07:14:37.447Z,11.57
2022-10-31T07:15:25.782Z,11.12
2022-10-31T07:16:14.120Z,12.82
2022-10-31T07:17:01.088Z,12.48
2022-10-31T07:17:48.052Z,11.05
2022-10-31T07:18:35.315Z,12.30
2022-10-31T07:19:22.170Z,12.00
2022-10-31T07:20:09.735Z,12.40
2022-10-31T07:20:56.716Z,13.40
2022-10-31T07:21:43.601Z,11.75
2022-10-31T07:22:35.806Z,13.07
2022-10-31T07:23:23.515Z,12.00
2022-10-31T07:24:10.447Z,11.27
2022-10-31T07:24:57.448Z,13.60
2022-10-31T07:25:44.350Z,11.70
2022-10-31T07:26:31.327Z,12.27
2022-10-31T07:27:18.235Z,12.32
2022-10-31T07:28:05.241Z,11.73
2022-10-31T07:28:52.209Z,11.75
2022-10-31T07:29:39.123Z,11.82
2022-10-31T07:30:26.031Z,11.93
2022-10-31T07:31:12.954Z,11.00
2022-10-31T07:31:59.828Z,11.18
2022-10-31T07:32:51.290Z,12.05
2022-10-31T07:33:38.227Z,12.82
2022-10-31T07:34:25.101Z,13.32
2022-10-31T07:35:15.402Z,12.23
2022-10-31T07:36:02.354Z,12.07
2022-10-31T07:36:49.281Z,12.20
2022-10-31T07:37:36.530Z,12.05
2022-10-31T07:38:23.514Z,12.40
2022-10-31T07:39:10.568Z,11.85
2022-10-31T07:39:57.599Z,12.80
2022-10-31T07:40:44.959Z,12.73
2022-10-31T07:41:31.912Z,11.57
2022-10-31T07:42:18.790Z,12.32
2022-10-31T07:43:08.854Z,13.18
2022-10-31T07:44:00.285Z,13.55
2022-10-31T07:44:47.295Z,12.30
2022-10-31T07:45:34.319Z,14.90
2022-10-31T07:46:22.916Z,13.68
2022-10-31T07:47:09.758Z,13.57
2022-10-31T07:47:57.007Z,13.93
2022-10-31T07:48:44.049Z,14.98
2022-10-31T07:49:30.926Z,14.40
2022-10-31T07:50:29.051Z,18.15
2022-10-31T07:51:15.958Z,13.20
2022-10-31T07:52:02.883Z,16.77
2022-10-31T07:52:50.199Z,12.57
2022-10-31T07:53:37.070Z,13.75
2022-10-31T07:54:24.089Z,13.15
2022-10-31T07:55:11.267Z,13.88
2022-10-31T07:55:58.295Z,14.02
2022-10-31T07:56:45.196Z,14.27
2022-10-31T07:57:34.703Z,13.25
2022-10-31T07:58:21.705Z,13.50
2022-10-31T07:59:08.645Z,13.38
2022-10-31T07:59:55.459Z,13.02
2022-10-31T08:00:45.177Z,15.73
2022-10-31T08:01:32.212Z,14.30
2022-10-31T08:02:19.315Z,13.57
2022-10-31T08:03:14.738Z,15.93
2022-10-31T08:04:01.640Z,14.00
2022-10-31T08:04:48.802Z,14.02
2022-10-31T08:05:36.478Z,17.70
2022-10-31T08:06:23.409Z,15.20
2022-10-31T08:07:10.315Z,24.17
2022-10-31T08:07:57.732Z,16.73
2022-10-31T08:08:44.887Z,20.98
2022-10-31T08:09:31.746Z,15.93
2022-10-31T08:10:18.688Z,14.68
2022-10-31T08:11:05.831Z,15.57
2022-10-31T08:11:54.215Z,17.80
2022-10-31T08:12:41.133Z,14.85
2022-10-31T08:13:28.178Z,18.05
2022-10-31T08:14:15.129Z,18.92
2022-10-31T08:15:03.247Z,16.87
2022-10-31T08:15:53.009Z,16.37
2022-10-31T08:16:39.914Z,17.02
2022-10-31T08:17:26.914Z,16.90
2022-10-31T08:18:14.732Z,18.45
2022-10-31T08:19:01.758Z,17.70
2022-10-31T08:19:48.640Z,14.80
2022-10-31T08:20:35.481Z,16.52
2022-10-31T08:21:22.920Z,15.23
2022-10-31T08:22:09.749Z,16.62
2022-10-31T08:23:01.454Z,15.30
2022-10-31T08:23:48.390Z,15.20
2022-10-31T08:24:35.414Z,15.85
2022-10-31T08:25:22.562Z,16.87
2022-10-31T08:26:09.503Z,18.58
2022-10-31T08:26:56.377Z,13.52
2022-10-31T08:27:43.306Z,17.17
2022-10-31T08:28:30.185Z,14.70
2022-10-31T08:29:17.262Z,15.18
2022-10-31T08:30:04.538Z,13.98
2022-10-31T08:30:51.546Z,14.43
2022-10-31T08:31:42.628Z,15.00
2022-10-31T08:32:29.806Z,15.48
2022-10-31T08:33:18.488Z,14.50
2022-10-31T08:34:05.579Z,14.95
2022-10-31T08:34:52.466Z,15.35
2022-10-31T08:35:39.609Z,13.90
2022-10-31T08:36:26.572Z,14.10
2022-10-31T08:37:13.432Z,17.48
2022-10-31T08:38:01.439Z,15.13
2022-10-31T08:38:49.171Z,13.93
2022-10-31T08:39:36.052Z,14.05
2022-10-31T08:40:24.186Z,15.25
2022-10-31T08:41:11.245Z,14.75
2022-10-31T08:41:58.176Z,14.02
2022-10-31T08:42:45.127Z,16.12
2022-10-31T08:43:32.072Z,14.77
2022-10-31T08:44:19.003Z,17.20
2022-10-31T08:45:06.220Z,18.17
2022-10-31T08:45:55.656Z,17.40
2022-10-31T08:46:42.690Z,15.77
2022-10-31T08:47:29.867Z,15.23
2022-10-31T08:48:18.023Z,15.23
2022-10-31T08:49:04.828Z,16.52
2022-10-31T08:49:51.658Z,15.40
2022-10-31T08:50:39.337Z,15.68
2022-10-31T08:51:26.228Z,14.63
2022-10-31T08:52:14.518Z,14.68
2022-10-31T08:53:05.802Z,15.27
2022-10-31T08:53:53.328Z,15.23
2022-10-31T08:54:40.159Z,15.35
2022-10-31T08:55:27.020Z,14.68
2022-10-31T08:56:13.939Z,14.48
2022-10-31T08:57:01.012Z,14.93
2022-10-31T08:57:47.970Z,15.52
2022-10-31T08:58:39.912Z,15.10
2022-10-31T08:59:27.244Z,16.52
2022-10-31T09:00:14.344Z,14.50
2022-10-31T09:01:02.161Z,15.82
2022-10-31T09:01:49.233Z,18.10
2022-10-31T09:02:36.413Z,15.20
2022-10-31T09:03:25.337Z,15.05
2022-10-31T09:04:12.284Z,15.77
2022-10-31T09:04:59.121Z,14.40
2022-10-31T09:05:46.964Z,14.73
2022-10-31T09:06:33.962Z,15.63
2022-10-31T09:07:21.401Z,14.90
2022-10-31T09:08:14.741Z,15.18
2022-10-31T09:09:01.877Z,14.77
2022-10-31T09:09:48.805Z,14.38
2022-10-31T09:10:37.374Z,13.98
2022-10-31T09:11:24.275Z,13.75
2022-10-31T09:12:11.150Z,14.52
2022-10-31T09:12:59.684Z,17.58
2022-10-31T09:13:46.546Z,15.45
2022-10-31T09:14:33.492Z,14.35
2022-10-31T09:15:20.461Z,15.25
2022-10-31T09:16:07.806Z,14.20
2022-10-31T09:16:54.731Z,15.70
2022-10-31T09:17:47.910Z,14.68
2022-10-31T09:18:35.040Z,14.30
2022-10-31T09:19:21.904Z,13.65
2022-10-31T09:20:09.332Z,14.85
2022-10-31T09:20:59.315Z,14.40
2022-10-31T09:21:46.160Z,19.65
2022-10-31T09:22:33.075Z,15.63
2022-10-31T09:23:21.919Z,14.23
2022-10-31T09:24:08.977Z,13.55
2022-10-31T09:24:55.866Z,14.07
2022-10-31T09:25:47.711Z,15.30
2022-10-31T09:26:37.198Z,13.82
2022-10-31T09:27:24.078Z,15.60
2022-10-31T09:28:13.192Z,15.30
2022-10-31T09:29:03.116Z,14.35
2022-10-31T09:29:49.936Z,14.55
2022-10-31T09:30:37.297Z,15.27
2022-10-31T09:31:24.259Z,16.52
2022-10-31T09:32:11.605Z,15.52
2022-10-31T09:33:02.173Z,15.05
2022-10-31T09:34:36.959Z,15.50
2022-10-31T09:35:25.792Z,17.58
2022-10-31T09:36:13.129Z,13.85
2022-10-31T09:37:00.059Z,14.45
2022-10-31T09:37:46.966Z,13.90
2022-10-31T09:38:33.840Z,14.82
2022-10-31T09:39:20.824Z,14.98
2022-10-31T09:40:07.950Z,15.98
2022-10-31T09:41:22.650Z,16.15
2022-10-31T09:42:30.135Z,14.85
2022-10-31T09:43:32.383Z,13.95
2022-10-31T09:44:25.783Z,14.65
2022-10-31T09:45:19.749Z,13.98
2022-10-31T09:46:12.141Z,13.52
2022-10-31T09:47:17.115Z,15.48
2022-10-31T09:48:45.320Z,13.68
2022-10-31T09:49:44.499Z,14.00
2022-10-31T09:50:55.743Z,14.93
2022-10-31T09:51:50.446Z,13.82
2022-10-31T09:52:42.373Z,13.15
2022-10-31T09:53:51.761Z,14.07
2022-10-31T09:54:46.670Z,15.65
2022-10-31T09:55:40.663Z,14.52
2022-10-31T09:56:28.748Z,15.73
2022-10-31T09:57:19.059Z,16.23
2022-10-31T09:58:06.277Z,14.57
2022-10-31T09:58:56.960Z,14.80
2022-10-31T09:59:45.664Z,15.40
2022-10-31T10:00:34.705Z,16.83
2022-10-31T10:01:29.805Z,14.63
2022-10-31T10:02:44.665Z,13.70
2022-10-31T10:03:44.000Z,14.45
2022-10-31T10:04:42.625Z,15.15
2022-10-31T10:05:35.712Z,15.00
2022-10-31T10:06:29.085Z,13.88
2022-10-31T10:07:33.991Z,15.77
2022-10-31T10:08:22.605Z,14.25
2022-10-31T10:09:11.085Z,13.50
2022-10-31T10:09:59.005Z,14.87
2022-10-31T10:10:52.981Z,14.35
2022-10-31T10:11:55.683Z,15.15
2022-10-31T10:13:06.539Z,13.85
2022-10-31T10:14:39.376Z,14.57
2022-10-31T10:15:26.387Z,16.10
2022-10-31T10:16:45.887Z,14.93
2022-10-31T10:18:07.626Z,15.35
2022-10-31T10:19:16.030Z,14.00
2022-10-31T10:20:20.800Z,13.20
2022-10-31T10:21:43.610Z,14.55
2022-10-31T10:22:49.085Z,13.73
2022-10-31T10:23:54.049Z,13.75
2022-10-31T10:24:59.479Z,14.75
2022-10-31T10:25:49.142Z,15.45
2022-10-31T10:26:41.905Z,17.65
2022-10-31T10:27:53.616Z,16.52
2022-10-31T10:28:43.285Z,25.67
2022-10-31T10:29:38.276Z,17.08
2022-10-31T10:30:51.230Z,19.40
2022-10-31T10:31:41.896Z,14.98
2022-10-31T10:32:31.138Z,16.37
2022-10-31T10:33:33.284Z,17.55
2022-10-31T10:34:33.455Z,18.12
2022-10-31T10:35:40.703Z,17.67
2022-10-31T10:37:01.847Z,18.17
2022-10-31T10:37:51.430Z,16.48
2022-10-31T10:38:51.559Z,16.10
2022-10-31T10:39:52.633Z,15.38
2022-10-31T10:40:39.727Z,16.37
2022-10-31T10:41:34.493Z,18.15
2022-10-31T10:42:40.662Z,15.98
2022-10-31T10:43:35.433Z,15.18
2022-10-31T10:44:22.351Z,15.90
2022-10-31T10:45:36.891Z,14.68
2022-10-31T10:46:59.670Z,14.70
2022-10-31T10:47:58.653Z,15.25
2022-10-31T10:49:11.309Z,15.50
2022-10-31T10:49:58.338Z,13.57